sensor_id;sensor_type;location;lat;lon;timestamp;pressure;altitude;pressure_sealevel;temperature;humidity
65997;BME280;52765;52.258;21.052;2023-02-28T00:01:15;102139.72;;;-0.99;64.70
65997;BME280;52765;52.258;21.052;2023-02-28T00:03:41;102142.38;;;-0.99;64.45
65997;BME280;52765;52.258;21.052;2023-02-28T00:06:07;102137.84;;;-0.96;64.98
65997;BME280;52765;52.258;21.052;2023-02-28T00:08:34;102124.91;;;-1.06;64.45
65997;BME280;52765;52.258;21.052;2023-02-28T00:11:05;102141.56;;;-1.03;65.01
65997;BME280;52765;52.258;21.052;2023-02-28T00:13:35;102138.16;;;-1.06;65.25
65997;BME280;52765;52.258;21.052;2023-02-28T00:16:05;102138.16;;;-1.06;66.48
65997;BME280;52765;52.258;21.052;2023-02-28T00:18:32;102145.25;;;-1.10;66.37
65997;BME280;52765;52.258;21.052;2023-02-28T00:21:00;102131.28;;;-1.15;65.93
65997;BME280;52765;52.258;21.052;2023-02-28T00:23:26;102147.09;;;-1.12;67.30
65997;BME280;52765;52.258;21.052;2023-02-28T00:25:52;102140.06;;;-1.13;66.84
65997;BME280;52765;52.258;21.052;2023-02-28T00:28:19;102148.91;;;-1.14;67.49
65997;BME280;52765;52.258;21.052;2023-02-28T00:30:45;102149.72;;;-1.12;67.74
65997;BME280;52765;52.258;21.052;2023-02-28T00:33:11;102146.31;;;-1.17;67.23
65997;BME280;52765;52.258;21.052;2023-02-28T00:35:40;102161.28;;;-1.15;67.64
65997;BME280;52765;52.258;21.052;2023-02-28T00:38:05;102148.19;;;-1.21;67.95
65997;BME280;52765;52.258;21.052;2023-02-28T00:40:31;102150.00;;;-1.23;68.17
65997;BME280;52765;52.258;21.052;2023-02-28T00:42:56;102153.47;;;-1.21;68.41
65997;BME280;52765;52.258;21.052;2023-02-28T00:45:22;102156.13;;;-1.21;68.55
65997;BME280;52765;52.258;21.052;2023-02-28T00:47:48;102145.72;;;-1.28;68.63
65997;BME280;52765;52.258;21.052;2023-02-28T00:50:17;102145.63;;;-1.25;69.91
65997;BME280;52765;52.258;21.052;2023-02-28T00:52:42;102145.75;;;-1.30;69.53
65997;BME280;52765;52.258;21.052;2023-02-28T00:55:10;102151.91;;;-1.29;69.46
65997;BME280;52765;52.258;21.052;2023-02-28T00:57:36;102151.09;;;-1.32;70.03
65997;BME280;52765;52.258;21.052;2023-02-28T01:00:02;102149.38;;;-1.34;70.29
65997;BME280;52765;52.258;21.052;2023-02-28T01:02:28;102146.81;;;-1.37;70.83
65997;BME280;52765;52.258;21.052;2023-02-28T01:04:54;102146.00;;;-1.41;71.77
65997;BME280;52765;52.258;21.052;2023-02-28T01:07:20;102154.84;;;-1.42;72.15
65997;BME280;52765;52.258;21.052;2023-02-28T01:09:45;102151.34;;;-1.42;72.54
65997;BME280;52765;52.258;21.052;2023-02-28T01:12:11;102136.47;;;-1.46;72.15
65997;BME280;52765;52.258;21.052;2023-02-28T01:14:36;102140.75;;;-1.42;72.65
65997;BME280;52765;52.258;21.052;2023-02-28T01:17:02;102145.31;;;-1.49;72.60
65997;BME280;52765;52.258;21.052;2023-02-28T01:19:28;102150.59;;;-1.49;73.19
65997;BME280;52765;52.258;21.052;2023-02-28T01:21:53;102154.25;;;-1.53;73.08
65997;BME280;52765;52.258;21.052;2023-02-28T01:24:19;102143.75;;;-1.58;73.93
65997;BME280;52765;52.258;21.052;2023-02-28T01:26:45;102143.84;;;-1.61;73.73
65997;BME280;52765;52.258;21.052;2023-02-28T01:29:10;102145.72;;;-1.66;74.38
65997;BME280;52765;52.258;21.052;2023-02-28T01:31:36;102144.00;;;-1.69;74.19
65997;BME280;52765;52.258;21.052;2023-02-28T01:34:02;102152.84;;;-1.70;73.96
65997;BME280;52765;52.258;21.052;2023-02-28T01:36:28;102155.53;;;-1.73;74.54
65997;BME280;52765;52.258;21.052;2023-02-28T01:38:54;102158.13;;;-1.70;73.95
65997;BME280;52765;52.258;21.052;2023-02-28T01:41:28;102156.34;;;-1.69;73.83
65997;BME280;52765;52.258;21.052;2023-02-28T01:43:58;102155.59;;;-1.76;74.10
65997;BME280;52765;52.258;21.052;2023-02-28T01:46:24;102146.00;;;-1.80;73.07
65997;BME280;52765;52.258;21.052;2023-02-28T01:51:43;102164.47;;;-1.78;74.27
65997;BME280;52765;52.258;21.052;2023-02-28T01:54:18;102156.63;;;-1.81;74.77
65997;BME280;52765;52.258;21.052;2023-02-28T01:57:13;102146.91;;;-1.81;74.92
65997;BME280;52765;52.258;21.052;2023-02-28T02:02:13;102157.47;;;-1.81;75.27
65997;BME280;52765;52.258;21.052;2023-02-28T02:04:56;102158.34;;;-1.80;75.73
65997;BME280;52765;52.258;21.052;2023-02-28T02:07:24;102159.28;;;-1.83;76.20
65997;BME280;52765;52.258;21.052;2023-02-28T02:10:00;102149.56;;;-1.81;77.31
65997;BME280;52765;52.258;21.052;2023-02-28T02:12:32;102148.63;;;-1.80;76.78
65997;BME280;52765;52.258;21.052;2023-02-28T02:17:47;102150.66;;;-1.91;76.51
65997;BME280;52765;52.258;21.052;2023-02-28T02:29:27;102160.72;;;-2.10;76.72
65997;BME280;52765;52.258;21.052;2023-02-28T02:37:38;102158.28;;;-2.19;77.23
65997;BME280;52765;52.258;21.052;2023-02-28T02:40:22;102158.31;;;-2.21;77.55
65997;BME280;52765;52.258;21.052;2023-02-28T02:43:01;102163.66;;;-2.24;77.37
65997;BME280;52765;52.258;21.052;2023-02-28T02:45:49;102165.47;;;-2.26;78.15
65997;BME280;52765;52.258;21.052;2023-02-28T02:48:19;102167.22;;;-2.27;78.35
65997;BME280;52765;52.258;21.052;2023-02-28T02:50:50;102164.72;;;-2.33;78.27
65997;BME280;52765;52.258;21.052;2023-02-28T02:53:18;102163.78;;;-2.32;79.71
65997;BME280;52765;52.258;21.052;2023-02-28T02:55:49;102171.72;;;-2.32;79.22
65997;BME280;52765;52.258;21.052;2023-02-28T02:58:22;102170.00;;;-2.34;79.74
65997;BME280;52765;52.258;21.052;2023-02-28T03:00:53;102179.69;;;-2.35;79.68
65997;BME280;52765;52.258;21.052;2023-02-28T03:03:20;102174.47;;;-2.36;80.31
65997;BME280;52765;52.258;21.052;2023-02-28T03:05:56;102171.94;;;-2.43;80.38
65997;BME280;52765;52.258;21.052;2023-02-28T03:08:21;102173.50;;;-2.34;81.09
65997;BME280;52765;52.258;21.052;2023-02-28T03:10:52;102174.28;;;-2.29;80.20
65997;BME280;52765;52.258;21.052;2023-02-28T03:13:44;102169.09;;;-2.33;80.43
65997;BME280;52765;52.258;21.052;2023-02-28T03:27:16;102178.88;;;-2.38;81.06
65997;BME280;52765;52.258;21.052;2023-02-28T03:29:47;102178.91;;;-2.40;81.53
65997;BME280;52765;52.258;21.052;2023-02-28T03:32:33;102178.03;;;-2.40;81.74
65997;BME280;52765;52.258;21.052;2023-02-28T03:37:33;102184.22;;;-2.42;82.23
65997;BME280;52765;52.258;21.052;2023-02-28T03:40:06;102184.19;;;-2.40;82.30
65997;BME280;52765;52.258;21.052;2023-02-28T03:42:35;102185.97;;;-2.40;81.95
65997;BME280;52765;52.258;21.052;2023-02-28T03:45:13;102188.59;;;-2.40;82.07
65997;BME280;52765;52.258;21.052;2023-02-28T03:48:00;102180.69;;;-2.40;82.19
65997;BME280;52765;52.258;21.052;2023-02-28T03:50:34;102184.16;;;-2.38;81.68
65997;BME280;52765;52.258;21.052;2023-02-28T03:53:08;102175.44;;;-2.42;81.16
65997;BME280;52765;52.258;21.052;2023-02-28T03:55:46;102186.78;;;-2.38;81.90
65997;BME280;52765;52.258;21.052;2023-02-28T03:58:40;102193.03;;;-2.43;81.34
65997;BME280;52765;52.258;21.052;2023-02-28T04:03:37;102183.44;;;-2.47;81.66
65997;BME280;52765;52.258;21.052;2023-02-28T04:06:04;102190.47;;;-2.46;81.31
65997;BME280;52765;52.258;21.052;2023-02-28T04:08:31;102181.69;;;-2.48;81.59
65997;BME280;52765;52.258;21.052;2023-02-28T04:11:56;102186.06;;;-2.47;81.48
65997;BME280;52765;52.258;21.052;2023-02-28T04:13:57;102186.97;;;-2.48;81.43
65997;BME280;52765;52.258;21.052;2023-02-28T04:16:22;102191.44;;;-2.51;81.86
65997;BME280;52765;52.258;21.052;2023-02-28T04:18:47;102188.03;;;-2.56;81.48
65997;BME280;52765;52.258;21.052;2023-02-28T04:21:13;102180.13;;;-2.56;82.23
65997;BME280;52765;52.258;21.052;2023-02-28T04:23:39;102187.94;;;-2.53;81.65
65997;BME280;52765;52.258;21.052;2023-02-28T04:26:04;102185.34;;;-2.55;81.75
65997;BME280;52765;52.258;21.052;2023-02-28T04:28:31;102182.00;;;-2.63;81.48
65997;BME280;52765;52.258;21.052;2023-02-28T04:31:04;102197.75;;;-2.60;82.45
65997;BME280;52765;52.258;21.052;2023-02-28T04:33:31;102186.44;;;-2.67;83.27
65997;BME280;52765;52.258;21.052;2023-02-28T04:36:05;102187.31;;;-2.66;83.33
65997;BME280;52765;52.258;21.052;2023-02-28T04:38:33;102183.78;;;-2.67;83.68
65997;BME280;52765;52.258;21.052;2023-02-28T04:41:00;102180.31;;;-2.69;83.58
65997;BME280;52765;52.258;21.052;2023-02-28T04:43:27;102187.22;;;-2.62;82.87
65997;BME280;52765;52.258;21.052;2023-02-28T04:45:53;102176.78;;;-2.68;83.42
65997;BME280;52765;52.258;21.052;2023-02-28T04:48:23;102186.34;;;-2.62;83.13
65997;BME280;52765;52.258;21.052;2023-02-28T04:50:49;102189.06;;;-2.67;83.31
65997;BME280;52765;52.258;21.052;2023-02-28T04:53:14;102187.28;;;-2.65;83.86
65997;BME280;52765;52.258;21.052;2023-02-28T04:55:39;102192.56;;;-2.65;84.12
65997;BME280;52765;52.258;21.052;2023-02-28T04:58:05;102191.66;;;-2.64;83.95
65997;BME280;52765;52.258;21.052;2023-02-28T05:00:31;102196.88;;;-2.61;83.91
65997;BME280;52765;52.258;21.052;2023-02-28T05:02:56;102191.59;;;-2.61;83.56
65997;BME280;52765;52.258;21.052;2023-02-28T05:05:22;102208.38;;;-2.63;83.77
65997;BME280;52765;52.258;21.052;2023-02-28T05:07:47;102197.84;;;-2.65;83.84
65997;BME280;52765;52.258;21.052;2023-02-28T05:10:13;102201.28;;;-2.61;84.44
65997;BME280;52765;52.258;21.052;2023-02-28T05:12:38;102198.69;;;-2.63;84.22
65997;BME280;52765;52.258;21.052;2023-02-28T05:15:04;102210.06;;;-2.61;84.08
65997;BME280;52765;52.258;21.052;2023-02-28T05:17:30;102214.50;;;-2.63;83.75
65997;BME280;52765;52.258;21.052;2023-02-28T05:19:56;102225.09;;;-2.64;84.41
65997;BME280;52765;52.258;21.052;2023-02-28T05:22:21;102216.34;;;-2.66;83.92
65997;BME280;52765;52.258;21.052;2023-02-28T05:24:47;102225.97;;;-2.65;84.51
65997;BME280;52765;52.258;21.052;2023-02-28T05:27:13;102228.63;;;-2.67;84.08
65997;BME280;52765;52.258;21.052;2023-02-28T05:29:38;102234.81;;;-2.66;84.25
65997;BME280;52765;52.258;21.052;2023-02-28T05:32:11;102229.53;;;-2.66;83.93
65997;BME280;52765;52.258;21.052;2023-02-28T05:34:40;102232.03;;;-2.58;84.58
65997;BME280;52765;52.258;21.052;2023-02-28T05:37:11;102243.44;;;-2.56;83.63
65997;BME280;52765;52.258;21.052;2023-02-28T05:39:37;102241.72;;;-2.59;83.31
65997;BME280;52765;52.258;21.052;2023-02-28T05:42:02;102239.91;;;-2.57;82.89
65997;BME280;52765;52.258;21.052;2023-02-28T05:44:28;102247.81;;;-2.57;82.54
65997;BME280;52765;52.258;21.052;2023-02-28T05:46:54;102243.34;;;-2.52;81.56
65997;BME280;52765;52.258;21.052;2023-02-28T05:49:19;102242.50;;;-2.54;80.94
65997;BME280;52765;52.258;21.052;2023-02-28T05:51:45;102242.53;;;-2.55;81.35
65997;BME280;52765;52.258;21.052;2023-02-28T05:54:10;102244.28;;;-2.54;81.18
65997;BME280;52765;52.258;21.052;2023-02-28T05:56:36;102253.09;;;-2.55;80.38
65997;BME280;52765;52.258;21.052;2023-02-28T05:59:04;102254.00;;;-2.56;80.51
65997;BME280;52765;52.258;21.052;2023-02-28T06:01:38;102254.81;;;-2.53;80.48
65997;BME280;52765;52.258;21.052;2023-02-28T06:04:05;102261.84;;;-2.53;80.04
65997;BME280;52765;52.258;21.052;2023-02-28T06:06:31;102260.97;;;-2.54;80.80
65997;BME280;52765;52.258;21.052;2023-02-28T06:08:59;102264.41;;;-2.49;81.25
65997;BME280;52765;52.258;21.052;2023-02-28T06:11:26;102267.78;;;-2.40;80.60
65997;BME280;52765;52.258;21.052;2023-02-28T06:13:59;102263.28;;;-2.35;80.31
65997;BME280;52765;52.258;21.052;2023-02-28T06:16:26;102258.00;;;-2.34;81.20
65997;BME280;52765;52.258;21.052;2023-02-28T06:18:52;102270.16;;;-2.25;81.31
65997;BME280;52765;52.258;21.052;2023-02-28T06:21:18;102266.47;;;-2.15;79.15
65997;BME280;52765;52.258;21.052;2023-02-28T06:23:44;102269.88;;;-2.08;78.85
65997;BME280;52765;52.258;21.052;2023-02-28T06:26:10;102268.13;;;-2.11;78.46
65997;BME280;52765;52.258;21.052;2023-02-28T06:28:36;102268.03;;;-2.05;78.46
65997;BME280;52765;52.258;21.052;2023-02-28T06:31:20;102266.13;;;-1.96;77.74
65997;BME280;52765;52.258;21.052;2023-02-28T06:33:46;102262.63;;;-2.00;77.70
65997;BME280;52765;52.258;21.052;2023-02-28T06:36:13;102257.22;;;-1.92;77.25
65997;BME280;52765;52.258;21.052;2023-02-28T06:38:40;102255.31;;;-1.86;75.76
65997;BME280;52765;52.258;21.052;2023-02-28T06:41:06;102251.69;;;-1.80;76.00
65997;BME280;52765;52.258;21.052;2023-02-28T06:43:35;102250.69;;;-1.73;76.06
65997;BME280;52765;52.258;21.052;2023-02-28T06:46:03;102246.13;;;-1.66;76.62
65997;BME280;52765;52.258;21.052;2023-02-28T06:48:29;102253.88;;;-1.58;76.68
65997;BME280;52765;52.258;21.052;2023-02-28T06:51:11;102250.22;;;-1.51;76.39
65997;BME280;52765;52.258;21.052;2023-02-28T06:53:38;102237.91;;;-1.52;76.07
65997;BME280;52765;52.258;21.052;2023-02-28T06:56:12;102228.94;;;-1.45;76.42
65997;BME280;52765;52.258;21.052;2023-02-28T06:58:38;102234.81;;;-1.32;76.89
65997;BME280;52765;52.258;21.052;2023-02-28T07:01:07;102231.06;;;-1.22;75.70
65997;BME280;52765;52.258;21.052;2023-02-28T07:03:42;102221.13;;;-1.12;75.48
65997;BME280;52765;52.258;21.052;2023-02-28T07:06:08;102226.28;;;-1.06;74.81
65997;BME280;52765;52.258;21.052;2023-02-28T07:08:34;102225.19;;;-0.97;74.59
65997;BME280;52765;52.258;21.052;2023-02-28T07:11:06;102223.22;;;-0.87;74.34
65997;BME280;52765;52.258;21.052;2023-02-28T07:13:31;102205.69;;;-0.91;73.83
65997;BME280;52765;52.258;21.052;2023-02-28T07:16:02;102221.84;;;-0.68;73.04
65997;BME280;52765;52.258;21.052;2023-02-28T07:18:34;102221.69;;;-0.62;72.21
65997;BME280;52765;52.258;21.052;2023-02-28T07:21:12;102227.41;;;-0.44;71.93
65997;BME280;52765;52.258;21.052;2023-02-28T07:23:40;102211.50;;;-0.43;70.18
65997;BME280;52765;52.258;21.052;2023-02-28T07:26:11;102212.00;;;-0.28;69.35
65997;BME280;52765;52.258;21.052;2023-02-28T07:28:38;102214.19;;;-0.11;68.51
65997;BME280;52765;52.258;21.052;2023-02-28T07:31:08;102207.19;;;-0.14;66.98
65997;BME280;52765;52.258;21.052;2023-02-28T07:33:33;102209.09;;;-0.19;65.27
65997;BME280;52765;52.258;21.052;2023-02-28T07:36:03;102198.25;;;-0.10;64.49
65997;BME280;52765;52.258;21.052;2023-02-28T07:38:29;102225.03;;;0.11;63.94
65997;BME280;52765;52.258;21.052;2023-02-28T07:40:54;102211.47;;;0.22;63.31
65997;BME280;52765;52.258;21.052;2023-02-28T07:43:20;102208.56;;;0.31;62.59
65997;BME280;52765;52.258;21.052;2023-02-28T07:45:45;102217.03;;;0.44;61.76
65997;BME280;52765;52.258;21.052;2023-02-28T07:48:20;102214.97;;;0.53;60.30
65997;BME280;52765;52.258;21.052;2023-02-28T07:50:54;102217.34;;;0.63;58.87
65997;BME280;52765;52.258;21.052;2023-02-28T07:53:20;102218.78;;;0.73;58.48
65997;BME280;52765;52.258;21.052;2023-02-28T07:55:47;102208.88;;;0.78;57.47
65997;BME280;52765;52.258;21.052;2023-02-28T07:58:12;102208.66;;;0.86;55.98
65997;BME280;52765;52.258;21.052;2023-02-28T08:00:38;102222.47;;;0.97;55.74
65997;BME280;52765;52.258;21.052;2023-02-28T08:03:11;102224.94;;;1.03;54.97
65997;BME280;52765;52.258;21.052;2023-02-28T08:05:40;102235.31;;;1.09;54.89
65997;BME280;52765;52.258;21.052;2023-02-28T08:08:06;102228.13;;;1.13;55.26
65997;BME280;52765;52.258;21.052;2023-02-28T08:10:32;102231.50;;;1.18;54.29
65997;BME280;52765;52.258;21.052;2023-02-28T08:12:58;102210.44;;;1.14;53.46
65997;BME280;52765;52.258;21.052;2023-02-28T08:15:39;102217.25;;;1.21;53.55
65997;BME280;52765;52.258;21.052;2023-02-28T08:18:17;102213.69;;;1.22;52.36
65997;BME280;52765;52.258;21.052;2023-02-28T08:20:45;102225.75;;;1.32;52.39
65997;BME280;52765;52.258;21.052;2023-02-28T08:23:11;102217.06;;;1.27;52.36
65997;BME280;52765;52.258;21.052;2023-02-28T08:25:37;102199.44;;;1.24;51.72
65997;BME280;52765;52.258;21.052;2023-02-28T08:28:02;102220.09;;;1.41;52.17
65997;BME280;52765;52.258;21.052;2023-02-28T08:30:33;102219.75;;;1.52;51.54
65997;BME280;52765;52.258;21.052;2023-02-28T08:32:59;102216.94;;;1.57;51.82
65997;BME280;52765;52.258;21.052;2023-02-28T08:35:31;102222.22;;;1.58;51.34
65997;BME280;52765;52.258;21.052;2023-02-28T08:37:59;102225.69;;;1.60;50.91
65997;BME280;52765;52.258;21.052;2023-02-28T08:40:32;102222.06;;;1.61;51.13
65997;BME280;52765;52.258;21.052;2023-02-28T08:42:57;102228.38;;;1.59;50.94
65997;BME280;52765;52.258;21.052;2023-02-28T08:45:30;102230.88;;;1.63;50.70
65997;BME280;52765;52.258;21.052;2023-02-28T08:47:58;102232.59;;;1.64;50.55
65997;BME280;52765;52.258;21.052;2023-02-28T08:50:24;102221.88;;;1.67;50.16
65997;BME280;52765;52.258;21.052;2023-02-28T08:52:49;102223.63;;;1.69;50.00
65997;BME280;52765;52.258;21.052;2023-02-28T08:55:18;102235.97;;;1.70;50.52
65997;BME280;52765;52.258;21.052;2023-02-28T08:57:43;102236.97;;;1.67;50.07
65997;BME280;52765;52.258;21.052;2023-02-28T09:00:09;102233.16;;;1.74;50.30
65997;BME280;52765;52.258;21.052;2023-02-28T09:02:44;102236.38;;;1.84;50.55
65997;BME280;52765;52.258;21.052;2023-02-28T09:05:10;102229.34;;;1.81;49.97
65997;BME280;52765;52.258;21.052;2023-02-28T09:07:35;102236.72;;;1.73;50.22
65997;BME280;52765;52.258;21.052;2023-02-28T09:10:09;102241.28;;;1.70;50.47
65997;BME280;52765;52.258;21.052;2023-02-28T09:12:40;102218.63;;;1.59;51.13
65997;BME280;52765;52.258;21.052;2023-02-28T09:15:07;102224.44;;;1.71;50.07
65997;BME280;52765;52.258;21.052;2023-02-28T09:17:32;102221.13;;;1.64;50.04
65997;BME280;52765;52.258;21.052;2023-02-28T09:19:58;102226.19;;;1.72;50.40
65997;BME280;52765;52.258;21.052;2023-02-28T09:22:24;102240.47;;;1.93;49.86
65997;BME280;52765;52.258;21.052;2023-02-28T09:24:49;102232.06;;;2.05;49.89
65997;BME280;52765;52.258;21.052;2023-02-28T09:27:21;102226.28;;;2.17;49.90
65997;BME280;52765;52.258;21.052;2023-02-28T09:29:46;102230.97;;;2.34;49.82
65997;BME280;52765;52.258;21.052;2023-02-28T09:32:15;102244.53;;;2.52;48.87
65997;BME280;52765;52.258;21.052;2023-02-28T09:34:40;102237.50;;;2.49;47.77
65997;BME280;52765;52.258;21.052;2023-02-28T09:37:06;102225.78;;;2.55;48.12
65997;BME280;52765;52.258;21.052;2023-02-28T09:39:34;102234.34;;;2.63;48.30
65997;BME280;52765;52.258;21.052;2023-02-28T09:42:04;102228.06;;;2.64;48.29
65997;BME280;52765;52.258;21.052;2023-02-28T09:44:36;102222.81;;;2.63;48.46
65997;BME280;52765;52.258;21.052;2023-02-28T09:47:29;102217.81;;;2.55;47.42
65997;BME280;52765;52.258;21.052;2023-02-28T09:49:58;102232.31;;;2.46;47.55
65997;BME280;52765;52.258;21.052;2023-02-28T09:52:30;102235.44;;;2.34;48.44
65997;BME280;52765;52.258;21.052;2023-02-28T09:58:04;102217.69;;;2.34;48.33
65997;BME280;52765;52.258;21.052;2023-02-28T10:00:33;102230.06;;;2.59;47.87
65997;BME280;52765;52.258;21.052;2023-02-28T10:03:30;102242.47;;;2.82;47.53
65997;BME280;52765;52.258;21.052;2023-02-28T10:06:19;102231.75;;;2.84;47.04
65997;BME280;52765;52.258;21.052;2023-02-28T10:09:10;102243.88;;;2.91;46.78
65997;BME280;52765;52.258;21.052;2023-02-28T10:11:39;102234.53;;;2.81;47.12
65997;BME280;52765;52.258;21.052;2023-02-28T10:19:23;102240.38;;;2.90;47.29
65997;BME280;52765;52.258;21.052;2023-02-28T10:21:57;102233.13;;;2.94;47.05
65997;BME280;52765;52.258;21.052;2023-02-28T10:24:30;102226.66;;;3.00;46.61
65997;BME280;52765;52.258;21.052;2023-02-28T10:27:19;102230.50;;;3.14;47.18
65997;BME280;52765;52.258;21.052;2023-02-28T10:29:52;102222.91;;;3.05;46.73
65997;BME280;52765;52.258;21.052;2023-02-28T10:32:24;102221.13;;;2.84;47.41
65997;BME280;52765;52.258;21.052;2023-02-28T10:37:41;102221.06;;;2.85;47.26
65997;BME280;52765;52.258;21.052;2023-02-28T10:45:35;102226.00;;;3.17;46.52
65997;BME280;52765;52.258;21.052;2023-02-28T10:48:05;102225.50;;;3.29;47.13
65997;BME280;52765;52.258;21.052;2023-02-28T11:01:40;102212.16;;;3.72;45.32
65997;BME280;52765;52.258;21.052;2023-02-28T11:07:22;102200.47;;;3.74;45.55
65997;BME280;52765;52.258;21.052;2023-02-28T11:09:52;102197.19;;;3.67;46.00
65997;BME280;52765;52.258;21.052;2023-02-28T11:14:49;102179.28;;;3.71;45.72
65997;BME280;52765;52.258;21.052;2023-02-28T11:17:24;102190.41;;;3.81;46.02
65997;BME280;52765;52.258;21.052;2023-02-28T11:19:55;102187.19;;;3.93;45.74
65997;BME280;52765;52.258;21.052;2023-02-28T11:22:24;102178.63;;;3.86;45.93
65997;BME280;52765;52.258;21.052;2023-02-28T11:24:55;102171.22;;;3.93;45.05
65997;BME280;52765;52.258;21.052;2023-02-28T11:29:56;102172.53;;;4.22;44.78
65997;BME280;52765;52.258;21.052;2023-02-28T11:32:24;102166.97;;;4.27;44.80
65997;BME280;52765;52.258;21.052;2023-02-28T11:35:13;102159.81;;;4.28;44.76
65997;BME280;52765;52.258;21.052;2023-02-28T11:37:42;102168.72;;;4.28;44.54
65997;BME280;52765;52.258;21.052;2023-02-28T11:40:19;102156.03;;;4.33;44.18
65997;BME280;52765;52.258;21.052;2023-02-28T11:43:02;102147.84;;;4.36;44.36
65997;BME280;52765;52.258;21.052;2023-02-28T11:48:33;102142.88;;;4.67;43.65
65997;BME280;52765;52.258;21.052;2023-02-28T11:51:15;102129.94;;;4.57;44.22
65997;BME280;52765;52.258;21.052;2023-02-28T11:56:44;102132.91;;;4.70;43.37
65997;BME280;52765;52.258;21.052;2023-02-28T12:04:47;102127.28;;;4.94;43.61
65997;BME280;52765;52.258;21.052;2023-02-28T12:07:29;102113.00;;;4.95;43.64
65997;BME280;52765;52.258;21.052;2023-02-28T12:20:48;102123.03;;;5.07;43.25
65997;BME280;52765;52.258;21.052;2023-02-28T12:23:41;102121.47;;;5.21;42.69
65997;BME280;52765;52.258;21.052;2023-02-28T12:29:27;102112.38;;;5.25;42.07
65997;BME280;52765;52.258;21.052;2023-02-28T12:31:56;102108.34;;;5.16;42.92
65997;BME280;52765;52.258;21.052;2023-02-28T12:34:31;102105.75;;;5.32;42.76
65997;BME280;52765;52.258;21.052;2023-02-28T12:37:05;102104.41;;;5.41;42.56
65997;BME280;52765;52.258;21.052;2023-02-28T12:39:37;102112.28;;;5.26;42.42
65997;BME280;52765;52.258;21.052;2023-02-28T12:42:19;102101.97;;;5.36;42.45
65997;BME280;52765;52.258;21.052;2023-02-28T12:44:54;102090.56;;;5.50;42.19
65997;BME280;52765;52.258;21.052;2023-02-28T12:47:22;102096.63;;;5.69;41.56
65997;BME280;52765;52.258;21.052;2023-02-28T12:49:54;102091.34;;;5.85;40.64
65997;BME280;52765;52.258;21.052;2023-02-28T12:52:44;102085.00;;;6.04;41.06
65997;BME280;52765;52.258;21.052;2023-02-28T12:55:26;102084.97;;;5.88;40.88
65997;BME280;52765;52.258;21.052;2023-02-28T13:07:28;102086.91;;;6.18;40.65
65997;BME280;52765;52.258;21.052;2023-02-28T13:09:58;102071.03;;;6.15;40.83
65997;BME280;52765;52.258;21.052;2023-02-28T13:12:27;102067.72;;;6.09;40.42
65997;BME280;52765;52.258;21.052;2023-02-28T13:15:28;102070.53;;;6.08;40.80
65997;BME280;52765;52.258;21.052;2023-02-28T13:17:58;102072.03;;;5.96;41.21
65997;BME280;52765;52.258;21.052;2023-02-28T13:20:34;102069.38;;;5.96;41.22
65997;BME280;52765;52.258;21.052;2023-02-28T13:23:02;102065.88;;;5.94;41.50
65997;BME280;52765;52.258;21.052;2023-02-28T13:28:00;102068.78;;;6.07;41.42
65997;BME280;52765;52.258;21.052;2023-02-28T13:35:45;102052.44;;;5.80;41.45
65997;BME280;52765;52.258;21.052;2023-02-28T13:38:34;102043.16;;;5.53;42.75
65997;BME280;52765;52.258;21.052;2023-02-28T13:44:18;102037.19;;;5.64;42.30
65997;BME280;52765;52.258;21.052;2023-02-28T14:05:33;102021.66;;;6.36;41.22
65997;BME280;52765;52.258;21.052;2023-02-28T14:08:06;102022.50;;;6.37;40.78
65997;BME280;52765;52.258;21.052;2023-02-28T14:10:46;102015.41;;;6.36;40.90
65997;BME280;52765;52.258;21.052;2023-02-28T14:13:42;102017.47;;;6.46;41.19
65997;BME280;52765;52.258;21.052;2023-02-28T14:16:14;102015.97;;;6.57;40.98
65997;BME280;52765;52.258;21.052;2023-02-28T14:19:00;102009.84;;;6.85;40.39
65997;BME280;52765;52.258;21.052;2023-02-28T14:21:29;101998.19;;;7.00;40.34
65997;BME280;52765;52.258;21.052;2023-02-28T14:35:49;101999.41;;;6.80;40.43
65997;BME280;52765;52.258;21.052;2023-02-28T14:38:25;101986.88;;;6.81;40.53
65997;BME280;52765;52.258;21.052;2023-02-28T14:40:55;101987.94;;;6.78;41.12
65997;BME280;52765;52.258;21.052;2023-02-28T14:43:24;101983.38;;;6.95;40.56
65997;BME280;52765;52.258;21.052;2023-02-28T14:45:53;101983.47;;;7.08;39.97
65997;BME280;52765;52.258;21.052;2023-02-28T14:48:20;101976.88;;;7.28;39.57
65997;BME280;52765;52.258;21.052;2023-02-28T14:50:52;101970.56;;;7.29;39.55
65997;BME280;52765;52.258;21.052;2023-02-28T14:53:23;101971.50;;;7.28;39.39
65997;BME280;52765;52.258;21.052;2023-02-28T14:55:50;101969.03;;;7.25;39.98
65997;BME280;52765;52.258;21.052;2023-02-28T14:58:32;101975.44;;;7.22;39.91
65997;BME280;52765;52.258;21.052;2023-02-28T15:01:01;101979.22;;;6.75;40.73
65997;BME280;52765;52.258;21.052;2023-02-28T15:03:35;101985.94;;;6.52;41.01
65997;BME280;52765;52.258;21.052;2023-02-28T15:06:16;101980.88;;;6.31;41.86
65997;BME280;52765;52.258;21.052;2023-02-28T15:08:43;101964.53;;;6.21;42.12
65997;BME280;52765;52.258;21.052;2023-02-28T15:11:13;101980.66;;;6.20;41.97
65997;BME280;52765;52.258;21.052;2023-02-28T15:13:43;101976.41;;;5.84;42.47
65997;BME280;52765;52.258;21.052;2023-02-28T15:18:58;101987.25;;;5.49;43.15
65997;BME280;52765;52.258;21.052;2023-02-28T15:21:28;101996.22;;;5.48;43.60
65997;BME280;52765;52.258;21.052;2023-02-28T15:24:10;101988.53;;;5.42;43.71
65997;BME280;52765;52.258;21.052;2023-02-28T15:26:40;101982.31;;;5.41;43.62
65997;BME280;52765;52.258;21.052;2023-02-28T15:29:15;101988.19;;;5.48;43.66
65997;BME280;52765;52.258;21.052;2023-02-28T15:31:50;101984.91;;;5.43;43.39
65997;BME280;52765;52.258;21.052;2023-02-28T15:36:53;101974.91;;;5.13;44.74
65997;BME280;52765;52.258;21.052;2023-02-28T15:39:28;101981.00;;;5.16;44.83